createdAt,value
2023-03-25T00:02:08.911Z,8.38
2023-03-25T00:04:56.166Z,8.37
2023-03-25T00:07:43.217Z,8.36
2023-03-25T00:10:29.282Z,8.37
2023-03-25T00:13:15.381Z,8.39
2023-03-25T00:16:01.688Z,8.40
2023-03-25T00:18:48.012Z,8.42
2023-03-25T00:21:35.831Z,8.41
2023-03-25T00:24:21.560Z,8.42
2023-03-25T00:27:07.323Z,8.42
2023-03-25T00:29:53.729Z,8.42
2023-03-25T00:32:39.784Z,8.46
2023-03-25T00:35:25.929Z,8.42
2023-03-25T00:38:13.266Z,8.42
2023-03-25T00:40:58.942Z,8.40
2023-03-25T00:43:45.389Z,8.42
2023-03-25T00:46:32.194Z,8.43
2023-03-25T00:49:18.055Z,8.40
2023-03-25T00:52:04.338Z,8.40
2023-03-25T00:54:52.665Z,8.38
2023-03-25T00:57:40.071Z,8.35
2023-03-25T01:00:26.489Z,8.33
2023-03-25T01:03:13.496Z,8.31
2023-03-25T01:05:59.332Z,8.33
2023-03-25T01:08:45.236Z,8.34
2023-03-25T01:11:34.874Z,8.34
2023-03-25T01:14:21.253Z,8.36
2023-03-25T01:17:07.244Z,8.36
2023-03-25T01:19:52.905Z,8.41
2023-03-25T01:22:38.660Z,8.45
2023-03-25T01:25:24.417Z,8.49
2023-03-25T01:28:11.623Z,8.54
2023-03-25T01:31:00.952Z,8.60
2023-03-25T01:33:47.134Z,8.65
2023-03-25T01:36:33.446Z,8.68
2023-03-25T01:39:19.704Z,8.70
2023-03-25T01:42:06.105Z,8.74
2023-03-25T01:45:17.605Z,8.73
2023-03-25T01:48:06.088Z,8.75
2023-03-25T01:50:53.114Z,8.77
2023-03-25T01:53:38.958Z,8.82
2023-03-25T01:56:25.289Z,8.83
2023-03-25T01:59:11.920Z,8.87
2023-03-25T02:02:01.571Z,8.88
2023-03-25T02:04:51.515Z,8.87
2023-03-25T02:07:37.734Z,8.82
2023-03-25T02:10:23.736Z,8.79
2023-03-25T02:13:09.521Z,8.74
2023-03-25T02:15:59.533Z,8.73
2023-03-25T02:18:49.142Z,8.68
2023-03-25T02:21:52.881Z,8.65
2023-03-25T02:24:55.014Z,8.64
2023-03-25T02:27:48.534Z,8.62
2023-03-25T02:30:53.216Z,8.56
2023-03-25T02:33:50.686Z,8.57
2023-03-25T02:36:52.358Z,8.56
2023-03-25T02:39:40.473Z,8.54
2023-03-25T02:42:26.895Z,8.54
2023-03-25T02:45:13.784Z,8.53
2023-03-25T02:48:00.735Z,8.52
2023-03-25T02:50:47.783Z,8.50
2023-03-25T02:53:34.246Z,8.47
2023-03-25T02:56:22.800Z,8.48
2023-03-25T02:59:09.093Z,8.52
2023-03-25T03:01:58.388Z,8.53
2023-03-25T03:04:51.584Z,8.48
2023-03-25T03:07:37.652Z,8.50
2023-03-25T03:10:24.065Z,8.49
2023-03-25T03:13:13.703Z,8.47
2023-03-25T03:16:00.920Z,8.43
2023-03-25T03:18:50.274Z,8.46
2023-03-25T03:21:38.130Z,8.45
2023-03-25T03:24:25.517Z,8.43
2023-03-25T03:27:12.933Z,8.41
2023-03-25T03:30:01.822Z,8.41
2023-03-25T03:32:49.785Z,8.41
2023-03-25T03:35:38.337Z,8.39
2023-03-25T03:38:25.754Z,8.43
2023-03-25T03:41:12.109Z,8.40
2023-03-25T03:43:58.714Z,8.38
2023-03-25T03:46:47.133Z,8.36
2023-03-25T03:49:34.796Z,8.35
2023-03-25T03:52:21.491Z,8.37
2023-03-25T03:55:10.769Z,8.35
2023-03-25T03:57:57.936Z,8.37
2023-03-25T04:00:44.330Z,8.37
2023-03-25T04:03:34.824Z,8.37
2023-03-25T04:06:24.322Z,8.35
2023-03-25T04:09:12.383Z,8.32
2023-03-25T04:11:59.813Z,8.28
2023-03-25T04:14:45.783Z,8.21
2023-03-25T04:17:32.942Z,8.18
2023-03-25T04:20:23.648Z,8.18
2023-03-25T04:23:10.240Z,8.12
2023-03-25T04:25:55.931Z,8.09
2023-03-25T04:28:44.427Z,8.08
2023-03-25T04:31:31.010Z,8.05
2023-03-25T04:34:17.004Z,8.00
2023-03-25T04:37:04.130Z,7.96
2023-03-25T04:39:50.293Z,7.94
2023-03-25T04:42:37.324Z,7.92
2023-03-25T04:45:25.223Z,7.86
2023-03-25T04:48:14.929Z,7.86
2023-03-25T04:51:01.774Z,7.81
2023-03-25T04:53:48.679Z,7.79
2023-03-25T04:56:34.578Z,7.79
2023-03-25T04:59:21.027Z,7.73
2023-03-25T05:02:07.046Z,7.74
2023-03-25T05:04:54.102Z,7.72
2023-03-25T05:07:40.111Z,7.67
2023-03-25T05:10:29.404Z,7.64
2023-03-25T05:13:15.380Z,7.61
2023-03-25T05:16:01.368Z,7.54
2023-03-25T05:18:47.285Z,7.50
2023-03-25T05:21:33.121Z,7.49
2023-03-25T05:24:19.345Z,7.48
2023-03-25T05:27:06.346Z,7.45
2023-03-25T05:29:52.283Z,7.39
2023-03-25T05:32:41.064Z,7.33
2023-03-25T05:35:27.454Z,7.32
2023-03-25T05:38:18.106Z,7.32
2023-03-25T05:41:04.566Z,7.33
2023-03-25T05:43:51.807Z,7.35
2023-03-25T05:46:37.665Z,7.37
2023-03-25T05:49:23.925Z,7.41
2023-03-25T05:52:11.707Z,7.43
2023-03-25T05:54:57.832Z,7.46
2023-03-25T05:57:43.755Z,7.49
2023-03-25T06:00:30.971Z,7.55
2023-03-25T06:03:18.318Z,7.57
2023-03-25T06:06:05.393Z,7.59
2023-03-25T06:08:51.592Z,7.65
2023-03-25T06:11:38.989Z,7.69
2023-03-25T06:14:25.551Z,7.77
2023-03-25T06:17:13.001Z,7.85
2023-03-25T06:20:00.380Z,7.92
2023-03-25T06:22:46.490Z,7.99
2023-03-25T06:25:32.441Z,8.03
2023-03-25T06:28:19.222Z,8.07
2023-03-25T06:31:08.887Z,8.12
2023-03-25T06:33:56.915Z,8.13
2023-03-25T06:36:42.901Z,8.16
2023-03-25T06:39:31.113Z,8.20
2023-03-25T06:42:18.957Z,8.24
2023-03-25T06:45:24.506Z,8.23
2023-03-25T06:48:36.507Z,8.30
2023-03-25T06:51:23.842Z,8.33
2023-03-25T06:54:09.914Z,8.36
2023-03-25T06:56:55.725Z,8.41
2023-03-25T06:59:41.833Z,8.45
2023-03-25T07:02:27.605Z,8.50
2023-03-25T07:05:13.432Z,8.59
2023-03-25T07:08:01.052Z,8.65
2023-03-25T07:10:47.043Z,8.73
2023-03-25T07:13:32.876Z,8.81
2023-03-25T07:16:18.699Z,8.88
2023-03-25T07:19:04.492Z,9.03
2023-03-25T07:21:51.052Z,9.05
2023-03-25T07:24:38.035Z,9.14
2023-03-25T07:27:23.763Z,9.16
2023-03-25T07:30:18.924Z,9.19
2023-03-25T07:33:05.257Z,9.22
2023-03-25T07:35:51.370Z,9.26
2023-03-25T07:38:37.730Z,9.21
2023-03-25T07:41:24.926Z,9.22
2023-03-25T07:44:23.678Z,9.24
2023-03-25T07:47:09.477Z,9.22
2023-03-25T07:49:55.269Z,9.32
2023-03-25T07:52:41.018Z,9.37
2023-03-25T07:55:27.278Z,9.45
2023-03-25T07:58:14.377Z,9.55
2023-03-25T08:01:00.192Z,9.63
2023-03-25T08:03:46.149Z,9.86
2023-03-25T08:06:32.308Z,9.92
2023-03-25T08:09:18.093Z,10.01
2023-03-25T08:12:04.034Z,9.98
2023-03-25T08:14:50.993Z,9.94
2023-03-25T08:17:36.903Z,9.99
2023-03-25T08:20:23.274Z,9.99
2023-03-25T08:23:10.670Z,9.94
2023-03-25T08:25:56.876Z,9.91
2023-03-25T08:28:42.725Z,9.94
2023-03-25T08:31:30.971Z,9.88
2023-03-25T08:34:17.282Z,9.90
2023-03-25T08:37:03.183Z,9.91
2023-03-25T08:39:50.275Z,9.90
2023-03-25T08:42:36.229Z,9.88
2023-03-25T08:45:22.310Z,9.92
2023-03-25T08:48:09.388Z,9.88
2023-03-25T08:50:55.128Z,9.89
2023-03-25T08:53:40.876Z,9.85
2023-03-25T08:56:27.049Z,9.83
2023-03-25T08:59:13.503Z,9.73
2023-03-25T09:02:01.458Z,9.64
2023-03-25T09:04:50.265Z,9.58
2023-03-25T09:07:36.259Z,9.53
2023-03-25T09:10:22.247Z,9.49
2023-03-25T09:13:08.137Z,9.58
2023-03-25T09:15:54.405Z,9.52
2023-03-25T09:18:40.439Z,9.52
2023-03-25T09:21:27.489Z,9.51
2023-03-25T09:24:13.793Z,9.43
2023-03-25T09:26:59.886Z,9.44
2023-03-25T09:29:45.827Z,9.45
2023-03-25T09:32:31.911Z,9.52
2023-03-25T09:35:17.895Z,9.59
2023-03-25T09:38:05.699Z,9.73
2023-03-25T09:40:51.933Z,9.77
2023-03-25T09:43:38.967Z,9.78
2023-03-25T09:46:25.164Z,9.80
2023-03-25T09:49:11.736Z,9.82
2023-03-25T09:51:57.748Z,10.20
2023-03-25T09:54:45.848Z,10.24
2023-03-25T09:57:32.331Z,10.42
2023-03-25T10:00:18.527Z,10.59
2023-03-25T10:03:08.799Z,10.97
2023-03-25T10:05:58.404Z,11.23
2023-03-25T10:08:47.019Z,11.32
2023-03-25T10:11:36.648Z,11.40
2023-03-25T10:14:22.648Z,11.26
2023-03-25T10:17:11.522Z,11.46
2023-03-25T10:20:01.963Z,11.47
2023-03-25T10:22:52.145Z,11.57
2023-03-25T10:25:39.003Z,11.63
2023-03-25T10:28:28.417Z,12.12
2023-03-25T10:31:15.401Z,12.18
2023-03-25T10:34:05.570Z,12.17
2023-03-25T10:36:54.932Z,12.23
2023-03-25T10:39:45.172Z,12.06
2023-03-25T10:42:33.245Z,12.07
2023-03-25T10:45:20.509Z,11.86
2023-03-25T10:48:08.083Z,11.88
2023-03-25T10:50:54.640Z,11.79
2023-03-25T10:53:41.322Z,11.69
2023-03-25T10:56:29.156Z,11.70
2023-03-25T10:59:18.709Z,11.77
2023-03-25T11:02:11.566Z,11.81
2023-03-25T11:04:57.861Z,11.92
2023-03-25T11:07:44.869Z,11.78
2023-03-25T11:10:32.267Z,11.86
2023-03-25T11:13:22.103Z,11.84
2023-03-25T11:16:08.418Z,11.94
2023-03-25T11:18:55.972Z,11.94
2023-03-25T11:21:44.706Z,11.76
2023-03-25T11:24:31.462Z,11.77
2023-03-25T11:27:18.245Z,11.90
2023-03-25T11:30:05.394Z,11.94
2023-03-25T11:32:58.034Z,12.02
2023-03-25T11:35:48.956Z,11.97
2023-03-25T11:38:36.433Z,11.84
2023-03-25T11:41:22.158Z,11.70
2023-03-25T11:44:08.052Z,11.64
2023-03-25T11:46:55.541Z,11.65
2023-03-25T11:49:42.043Z,11.57
2023-03-25T11:52:30.564Z,11.57
2023-03-25T11:55:17.549Z,11.50
2023-03-25T11:58:04.336Z,11.50
2023-03-25T12:00:50.671Z,11.54
2023-03-25T12:03:38.544Z,11.58
2023-03-25T12:06:24.403Z,11.71
2023-03-25T12:09:12.959Z,11.81
2023-03-25T12:12:03.278Z,11.89
2023-03-25T12:14:50.961Z,11.97
2023-03-25T12:17:40.548Z,11.87
2023-03-25T12:20:27.576Z,11.75
2023-03-25T12:23:16.059Z,11.85
2023-03-25T12:26:04.850Z,11.96
2023-03-25T12:28:56.378Z,12.14
2023-03-25T12:31:46.343Z,12.34
2023-03-25T12:34:37.267Z,12.41
2023-03-25T12:37:28.316Z,12.68
2023-03-25T12:40:35.040Z,12.76
2023-03-25T12:43:22.731Z,13.03
2023-03-25T12:46:10.327Z,13.53
2023-03-25T12:48:59.860Z,13.78
2023-03-25T12:51:48.795Z,14.14
2023-03-25T12:54:38.322Z,13.97
2023-03-25T12:57:27.806Z,14.08
2023-03-25T13:00:21.866Z,14.15
2023-03-25T13:03:14.464Z,14.15
2023-03-25T13:06:00.605Z,13.60
2023-03-25T13:08:48.060Z,13.51
2023-03-25T13:11:34.605Z,13.47
2023-03-25T13:14:22.190Z,13.35
2023-03-25T13:17:12.295Z,13.09
2023-03-25T13:20:00.857Z,12.71
2023-03-25T13:22:47.494Z,12.49
2023-03-25T13:25:36.553Z,12.49
2023-03-25T13:28:23.119Z,12.45
2023-03-25T13:31:11.675Z,12.40
2023-03-25T13:34:02.492Z,12.25
2023-03-25T13:36:50.509Z,12.22
2023-03-25T13:39:42.871Z,12.22
2023-03-25T13:42:29.054Z,11.99
2023-03-25T13:45:15.849Z,11.37
2023-03-25T13:48:03.599Z,11.14
2023-03-25T13:50:51.466Z,10.95
2023-03-25T13:53:38.595Z,10.88
2023-03-25T13:56:35.637Z,10.72
2023-03-25T13:59:31.056Z,10.74
2023-03-25T14:02:24.974Z,10.66
2023-03-25T14:05:19.124Z,10.63
2023-03-25T14:08:12.211Z,10.55
2023-03-25T14:11:00.218Z,10.51
2023-03-25T14:13:47.127Z,10.44
2023-03-25T14:16:33.831Z,10.34
2023-03-25T14:19:21.667Z,10.29
2023-03-25T14:22:08.207Z,10.18
2023-03-25T14:24:55.323Z,10.07
2023-03-25T14:27:41.144Z,9.95
2023-03-25T14:30:28.128Z,9.96
2023-03-25T14:33:14.570Z,9.94
2023-03-25T14:36:00.312Z,10.06
2023-03-25T14:38:53.672Z,10.13
2023-03-25T14:42:00.426Z,10.21
2023-03-25T14:44:49.470Z,10.21
2023-03-25T14:47:35.678Z,10.17
2023-03-25T14:50:31.224Z,10.11
2023-03-25T14:53:17.073Z,10.04
2023-03-25T14:56:03.209Z,10.03
2023-03-25T14:58:52.740Z,9.87
2023-03-25T15:01:40.230Z,9.76
2023-03-25T15:04:28.780Z,9.58
2023-03-25T15:07:17.350Z,9.62
2023-03-25T15:10:03.730Z,9.58
2023-03-25T15:12:51.119Z,9.57
2023-03-25T15:15:52.211Z,9.59
2023-03-25T15:18:56.852Z,9.56
2023-03-25T15:21:57.805Z,9.46
2023-03-25T15:24:48.834Z,9.39
2023-03-25T15:27:39.486Z,9.34
2023-03-25T15:30:30.219Z,9.29
2023-03-25T15:33:19.904Z,9.29
2023-03-25T15:36:09.266Z,9.20
2023-03-25T15:38:58.659Z,9.14
2023-03-25T15:41:51.567Z,9.17
2023-03-25T15:44:58.429Z,9.13
2023-03-25T15:47:47.852Z,9.10
2023-03-25T15:50:39.180Z,9.05
2023-03-25T15:53:44.461Z,9.08
2023-03-25T15:56:30.992Z,9.05
2023-03-25T15:59:22.474Z,9.05
2023-03-25T16:02:13.324Z,8.97
2023-03-25T16:04:59.113Z,8.95
2023-03-25T16:07:45.898Z,8.78
2023-03-25T16:10:35.960Z,8.72
2023-03-25T16:13:24.356Z,8.66
2023-03-25T16:16:11.808Z,8.65
2023-03-25T16:18:57.529Z,8.58
2023-03-25T16:21:43.399Z,8.58
2023-03-25T16:24:29.929Z,8.52
2023-03-25T16:27:20.119Z,8.47
2023-03-25T16:30:08.941Z,8.50
2023-03-25T16:32:57.935Z,8.51
2023-03-25T16:35:44.974Z,8.51
2023-03-25T16:38:31.003Z,8.51
2023-03-25T16:41:16.942Z,8.56
2023-03-25T16:44:03.234Z,8.58
2023-03-25T16:46:49.100Z,8.62
2023-03-25T16:49:37.621Z,8.63
2023-03-25T16:52:24.999Z,8.62
2023-03-25T16:55:29.606Z,8.62
2023-03-25T16:58:19.456Z,8.65
2023-03-25T17:01:08.838Z,8.59
2023-03-25T17:03:55.771Z,8.68
2023-03-25T17:06:43.249Z,8.61
2023-03-25T17:09:34.130Z,8.60
2023-03-25T17:12:20.844Z,8.64
2023-03-25T17:15:09.151Z,8.62
2023-03-25T17:18:00.009Z,8.58
2023-03-25T17:20:46.596Z,8.61
2023-03-25T17:23:37.533Z,8.62
2023-03-25T17:26:24.336Z,8.61
2023-03-25T17:29:12.151Z,8.63
2023-03-25T17:31:59.098Z,8.62
2023-03-25T17:34:46.327Z,8.64
2023-03-25T17:37:32.113Z,8.62
2023-03-25T17:40:25.230Z,8.64
2023-03-25T17:43:16.393Z,8.62
2023-03-25T17:46:02.303Z,8.57
2023-03-25T17:48:48.470Z,8.52
2023-03-25T17:51:34.230Z,8.43
2023-03-25T17:54:20.074Z,8.41
2023-03-25T17:57:07.556Z,8.32
2023-03-25T17:59:55.607Z,8.23
2023-03-25T18:02:41.648Z,8.19
2023-03-25T18:05:27.735Z,8.13
2023-03-25T18:08:14.217Z,8.12
2023-03-25T18:11:00.183Z,8.06
2023-03-25T18:13:48.514Z,8.03
2023-03-25T18:16:34.373Z,8.02
2023-03-25T18:19:21.610Z,7.92
2023-03-25T18:22:19.332Z,7.83
2023-03-25T18:25:06.549Z,7.84
2023-03-25T18:27:53.256Z,7.81
2023-03-25T18:30:42.552Z,7.77
2023-03-25T18:33:28.573Z,7.70
2023-03-25T18:36:14.817Z,7.67
2023-03-25T18:39:00.664Z,7.68
2023-03-25T18:41:46.841Z,7.65
2023-03-25T18:44:32.587Z,7.66
2023-03-25T18:47:19.773Z,7.64
2023-03-25T18:50:11.581Z,7.68
2023-03-25T18:52:58.665Z,7.66
2023-03-25T18:55:45.879Z,7.68
2023-03-25T18:58:32.812Z,7.68
2023-03-25T19:01:20.534Z,7.64
2023-03-25T19:04:09.162Z,7.65
2023-03-25T19:06:55.695Z,7.68
2023-03-25T19:09:42.094Z,7.66
2023-03-25T19:12:28.191Z,7.63
2023-03-25T19:15:15.225Z,7.66
2023-03-25T19:18:01.704Z,7.63
2023-03-25T19:20:49.504Z,7.63
2023-03-25T19:23:36.361Z,7.62
2023-03-25T19:26:22.212Z,7.62
2023-03-25T19:29:08.529Z,7.59
2023-03-25T19:31:54.291Z,7.54
2023-03-25T19:34:39.977Z,7.54
2023-03-25T19:37:30.877Z,7.50
2023-03-25T19:40:18.766Z,7.48
2023-03-25T19:43:06.328Z,7.37
2023-03-25T19:45:55.719Z,7.32
2023-03-25T19:48:41.980Z,7.31
2023-03-25T19:51:28.186Z,7.26
2023-03-25T19:54:15.548Z,7.20
2023-03-25T19:57:01.439Z,7.17
2023-03-25T19:59:48.085Z,7.13
2023-03-25T20:02:34.004Z,7.13
2023-03-25T20:05:20.237Z,7.09
2023-03-25T20:08:06.490Z,7.11
2023-03-25T20:10:54.024Z,7.12
2023-03-25T20:13:40.327Z,7.14
2023-03-25T20:16:27.831Z,7.16
2023-03-25T20:19:13.866Z,7.22
2023-03-25T20:21:59.838Z,7.24
2023-03-25T20:24:46.338Z,7.25
2023-03-25T20:27:33.682Z,7.31
2023-03-25T20:30:20.231Z,7.32
2023-03-25T20:33:05.966Z,7.35
2023-03-25T20:35:51.845Z,7.35
2023-03-25T20:38:41.982Z,7.38
2023-03-25T20:41:33.644Z,7.40
2023-03-25T20:44:21.802Z,7.42
2023-03-25T20:47:09.281Z,7.42
2023-03-25T20:49:55.386Z,7.44
2023-03-25T20:52:41.502Z,7.43
2023-03-25T20:55:27.439Z,7.46
2023-03-25T20:58:13.498Z,7.48
2023-03-25T21:01:00.623Z,7.42
2023-03-25T21:03:46.773Z,7.41
2023-03-25T21:06:32.858Z,7.35
2023-03-25T21:09:18.950Z,7.31
2023-03-25T21:12:05.288Z,7.28
2023-03-25T21:14:51.490Z,7.24
2023-03-25T21:17:38.554Z,7.25
2023-03-25T21:20:26.986Z,7.21
2023-03-25T21:23:12.966Z,7.21
2023-03-25T21:25:59.858Z,7.20
2023-03-25T21:28:45.525Z,7.24
2023-03-25T21:31:31.726Z,7.24
2023-03-25T21:34:19.220Z,7.21
2023-03-25T21:37:05.438Z,7.23
2023-03-25T21:39:57.208Z,7.22
2023-03-25T21:42:45.578Z,7.24
2023-03-25T21:45:33.830Z,7.25
2023-03-25T21:48:20.152Z,7.25
2023-03-25T21:51:11.809Z,7.30
2023-03-25T21:53:58.339Z,7.27
2023-03-25T21:56:44.353Z,7.26
2023-03-25T21:59:30.564Z,7.24
2023-03-25T22:02:16.991Z,7.25
2023-03-25T22:05:03.129Z,7.24
2023-03-25T22:07:50.486Z,7.22
2023-03-25T22:10:36.782Z,7.24
2023-03-25T22:13:22.766Z,7.20
2023-03-25T22:16:08.948Z,7.21
2023-03-25T22:18:55.033Z,7.23
2023-03-25T22:21:41.115Z,7.19
2023-03-25T22:24:30.498Z,7.17
2023-03-25T22:27:17.180Z,7.19
2023-03-25T22:30:02.904Z,7.18
2023-03-25T22:32:48.692Z,7.16
2023-03-25T22:35:34.671Z,7.17
2023-03-25T22:38:21.616Z,7.17
2023-03-25T22:41:09.110Z,7.16
2023-03-25T22:43:55.711Z,7.14
2023-03-25T22:46:41.490Z,7.14
2023-03-25T22:49:27.841Z,7.11
2023-03-25T22:52:13.582Z,7.09
2023-03-25T22:54:59.884Z,7.13
2023-03-25T22:57:47.442Z,7.13
2023-03-25T23:00:33.278Z,7.11
2023-03-25T23:03:19.225Z,7.12
2023-03-25T23:06:06.378Z,7.12
2023-03-25T23:08:52.504Z,7.13
2023-03-25T23:11:38.641Z,7.15
2023-03-25T23:14:26.462Z,7.14
2023-03-25T23:17:12.593Z,7.13
2023-03-25T23:19:58.634Z,7.15
2023-03-25T23:22:44.457Z,7.15
2023-03-25T23:25:31.249Z,7.18
2023-03-25T23:28:18.101Z,7.19
2023-03-25T23:31:08.989Z,7.16
2023-03-25T23:33:55.884Z,7.16
2023-03-25T23:36:41.849Z,7.20
2023-03-25T23:39:27.837Z,7.18
2023-03-25T23:42:13.899Z,7.21
2023-03-25T23:45:00.105Z,7.23
2023-03-25T23:47:49.110Z,7.23
2023-03-25T23:50:35.311Z,7.27
2023-03-25T23:53:21.449Z,7.26
2023-03-25T23:56:08.260Z,7.26
2023-03-25T23:58:54.106Z,7.24
